Time;durP1;ratioP1;P1;durP2;ratioP2;P2;SDS_P1;SDS_P2;PMS_P1;PMS_P2;Temp;Humidity;BMP_temperature;BMP_pressure;BME280_temperature;BME280_humidity;BME280_pressure;Samples;Min_cycle;Max_cycle;Signal;HPM_P1;HPM_P2
2024/01/15 00:01:50;;;;;;;;;;;20.10;61.50;;;;;;5073276;27;43013;-93
2024/01/15 00:04:30;;;;;;;;;;;19.10;60.90;;;;;;5087825;28;42811;-89
2024/01/15 00:13:02;;;;;;;;;;;18.00;60.10;;;;;;5073341;27;43020;-85
2024/01/15 00:33:32;;;;;;;;;;;20.50;61.60;;;;;;5245636;22;43280;-87
2024/01/15 00:35:58;;;;;;;;;;;19.20;60.80;;;;;;4998091;28;43038;-87
2024/01/15 00:38:23;;;;;;;;;;;19.20;61.20;;;;;;5006680;28;44521;-83
2024/01/15 00:49:30;;;;;;;;;;;19.80;61.30;;;;;;5112785;27;42955;-86
2024/01/15 00:51:56;;;;;;;;;;;19.20;60.50;;;;;;5116509;27;42999;-80
2024/01/15 00:54:21;;;;;;;;;;;19.20;61.20;;;;;;5114428;27;43980;-80
2024/01/15 00:56:47;;;;;;;;;;;19.20;61.10;;;;;;5107983;27;42947;-83
2024/01/15 00:59:14;;;;;;;;;;;19.20;61.10;;;;;;5107705;27;42875;-79
2024/01/15 01:01:42;;;;;;;;;;;19.20;61.00;;;;;;5086626;27;42956;-79
2024/01/15 01:04:11;;;;;;;;;;;19.20;61.10;;;;;;5100828;27;43590;-80
2024/01/15 01:06:36;;;;;;;;;;;19.20;61.30;;;;;;5106498;27;42911;-80
2024/01/15 01:09:02;;;;;;;;;;;19.20;61.20;;;;;;5098570;27;42955;-79
2024/01/15 01:11:27;;;;;;;;;;;19.20;61.40;;;;;;5106555;27;42920;-80
2024/01/15 01:13:53;;;;;;;;;;;19.20;61.60;;;;;;5105779;27;43524;-87
2024/01/15 01:16:18;;;;;;;;;;;19.20;61.60;;;;;;5106589;27;42922;-79
2024/01/15 01:18:44;;;;;;;;;;;19.20;61.40;;;;;;5105214;27;43814;-80
2024/01/15 01:21:09;;;;;;;;;;;19.20;61.30;;;;;;5115559;27;43080;-79
2024/01/15 01:23:35;;;;;;;;;;;19.20;61.40;;;;;;5106103;27;43647;-79
2024/01/15 01:26:00;;;;;;;;;;;19.20;61.60;;;;;;5105692;27;42936;-79
2024/01/15 01:28:26;;;;;;;;;;;19.20;61.40;;;;;;5104424;27;43783;-79
2024/01/15 01:30:51;;;;;;;;;;;19.20;61.40;;;;;;5112876;27;42991;-79
2024/01/15 01:33:17;;;;;;;;;;;19.20;61.60;;;;;;5087262;27;43027;-78
2024/01/15 01:35:43;;;;;;;;;;;19.20;61.70;;;;;;5234914;22;43224;-79
2024/01/15 01:38:08;;;;;;;;;;;19.20;61.60;;;;;;5065563;28;43281;-79
2024/01/15 01:40:34;;;;;;;;;;;19.20;61.80;;;;;;5065144;28;43008;-78
2024/01/15 01:42:59;;;;;;;;;;;19.20;61.80;;;;;;5065165;28;43002;-81
2024/01/15 02:11:18;;;;;;;;;;;19.20;61.90;;;;;;5708749;22;43427;-82
2024/01/15 02:13:44;;;;;;;;;;;19.20;61.90;;;;;;5099022;27;45220;-80
2024/01/15 02:16:10;;;;;;;;;;;19.20;61.80;;;;;;5081794;28;43112;-80
2024/01/15 02:18:42;;;;;;;;;;;19.20;62.10;;;;;;5083931;27;43464;-80
2024/01/15 02:21:08;;;;;;;;;;;19.20;62.00;;;;;;5081710;28;43215;-83
2024/01/15 02:23:33;;;;;;;;;;;19.20;62.00;;;;;;5084102;27;43073;-83
2024/01/15 02:25:59;;;;;;;;;;;19.10;62.10;;;;;;5081929;27;43518;-79
2024/01/15 02:49:07;;;;;;;;;;;19.10;62.50;;;;;;5342853;22;43175;-84
2024/01/15 02:51:33;;;;;;;;;;;19.10;62.60;;;;;;5084756;27;42892;-83
2024/01/15 02:53:58;;;;;;;;;;;19.10;62.70;;;;;;5083490;28;43864;-79
2024/01/15 02:56:24;;;;;;;;;;;19.10;62.70;;;;;;5082975;28;43029;-79
2024/01/15 02:58:49;;;;;;;;;;;19.10;62.80;;;;;;5083876;27;44361;-79
2024/01/15 03:01:15;;;;;;;;;;;19.10;62.70;;;;;;5083880;28;42910;-84
2024/01/15 03:03:40;;;;;;;;;;;19.10;62.70;;;;;;5083649;28;42931;-80
2024/01/15 03:06:06;;;;;;;;;;;19.10;62.80;;;;;;5083339;28;43202;-80
2024/01/15 03:08:31;;;;;;;;;;;19.10;62.80;;;;;;5082879;28;42818;-82
2024/01/15 03:10:57;;;;;;;;;;;19.10;62.90;;;;;;5086709;27;42786;-86
2024/01/15 03:13:22;;;;;;;;;;;19.10;63.10;;;;;;5090403;28;43014;-80
2024/01/15 03:15:48;;;;;;;;;;;19.10;63.10;;;;;;5095467;28;42399;-79
2024/01/15 03:18:13;;;;;;;;;;;19.10;63.20;;;;;;5086011;27;43501;-81
2024/01/15 03:20:39;;;;;;;;;;;19.10;63.20;;;;;;5088339;27;42885;-79
2024/01/15 03:23:04;;;;;;;;;;;19.10;63.40;;;;;;5084295;28;43549;-79
2024/01/15 03:25:30;;;;;;;;;;;19.00;63.20;;;;;;5077636;27;43070;-79
2024/01/15 03:27:55;;;;;;;;;;;19.00;63.20;;;;;;5075728;28;43120;-79
2024/01/15 03:30:21;;;;;;;;;;;19.00;63.40;;;;;;5078195;28;43109;-79
2024/01/15 03:32:47;;;;;;;;;;;19.00;63.50;;;;;;5083827;27;42950;-78
2024/01/15 03:35:12;;;;;;;;;;;19.10;63.60;;;;;;5083247;27;42852;-79
2024/01/15 03:37:38;;;;;;;;;;;19.10;63.70;;;;;;5083943;28;42810;-82
2024/01/15 03:40:04;;;;;;;;;;;19.10;63.60;;;;;;5083253;28;42870;-80
2024/01/15 03:42:29;;;;;;;;;;;19.10;63.80;;;;;;5083233;27;42994;-79
2024/01/15 03:44:55;;;;;;;;;;;19.00;63.90;;;;;;5083399;28;43034;-79
2024/01/15 03:47:20;;;;;;;;;;;19.10;64.00;;;;;;5083106;28;42905;-81
2024/01/15 03:49:46;;;;;;;;;;;19.00;63.80;;;;;;5083730;27;43035;-81
2024/01/15 03:52:11;;;;;;;;;;;19.00;63.90;;;;;;5083393;28;42876;-80
2024/01/15 03:54:37;;;;;;;;;;;19.00;64.00;;;;;;5083389;27;43074;-79
2024/01/15 03:57:03;;;;;;;;;;;19.00;64.00;;;;;;5082380;27;44398;-78
2024/01/15 03:59:28;;;;;;;;;;;19.00;64.00;;;;;;5082665;28;43015;-80
2024/01/15 04:01:54;;;;;;;;;;;19.00;64.10;;;;;;5082793;28;43163;-80
2024/01/15 04:04:19;;;;;;;;;;;19.00;64.00;;;;;;5083139;28;42924;-80
2024/01/15 04:06:45;;;;;;;;;;;19.00;64.00;;;;;;5082533;28;43789;-79
2024/01/15 04:11:46;;;;;;;;;;;19.00;64.10;;;;;;5147357;22;43602;-82
2024/01/15 04:14:11;;;;;;;;;;;19.00;64.00;;;;;;5079267;28;42994;-79
2024/01/15 04:16:37;;;;;;;;;;;19.00;64.00;;;;;;5083032;28;43177;-79
2024/01/15 04:19:02;;;;;;;;;;;19.00;64.00;;;;;;5083437;28;42910;-79
2024/01/15 04:21:28;;;;;;;;;;;16.60;62.60;;;;;;5084576;27;42882;-80
2024/01/15 04:23:53;;;;;;;;;;;19.00;64.20;;;;;;5077728;28;42969;-80
2024/01/15 04:26:19;;;;;;;;;;;19.00;64.10;;;;;;5086370;28;43455;-79
2024/01/15 04:28:44;;;;;;;;;;;19.00;64.00;;;;;;5086943;28;43174;-79
2024/01/15 04:31:20;;;;;;;;;;;19.00;64.00;;;;;;5086155;28;42927;-79
2024/01/15 04:33:45;;;;;;;;;;;19.00;64.00;;;;;;5087497;27;42977;-80
2024/01/15 04:36:11;;;;;;;;;;;19.00;64.10;;;;;;5085942;28;42975;-79
2024/01/15 04:38:36;;;;;;;;;;;19.00;64.00;;;;;;5080115;27;42962;-79
2024/01/15 04:41:02;;;;;;;;;;;19.00;64.20;;;;;;5085450;27;43464;-79
2024/01/15 04:43:27;;;;;;;;;;;19.00;64.10;;;;;;5076771;28;42944;-79
2024/01/15 04:45:53;;;;;;;;;;;19.00;64.00;;;;;;5085860;27;43094;-91
2024/01/15 04:48:18;;;;;;;;;;;19.00;64.30;;;;;;5085460;28;43110;-81
2024/01/15 04:50:44;;;;;;;;;;;19.00;64.30;;;;;;5075694;27;43125;-78
2024/01/15 04:53:09;;;;;;;;;;;19.00;64.30;;;;;;5084547;28;43096;-79
2024/01/15 04:55:35;;;;;;;;;;;19.00;64.10;;;;;;5084334;28;42958;-80
2024/01/15 04:58:00;;;;;;;;;;;18.90;64.00;;;;;;5084949;28;43188;-83
2024/01/15 05:00:26;;;;;;;;;;;19.00;63.50;;;;;;5084843;27;43058;-81
2024/01/15 05:02:51;;;;;;;;;;;19.00;64.00;;;;;;5083303;28;42864;-81
2024/01/15 05:05:17;;;;;;;;;;;19.00;64.10;;;;;;5085776;28;43649;-81
2024/01/15 05:07:42;;;;;;;;;;;19.00;63.90;;;;;;5083215;28;43442;-82
2024/01/15 05:10:08;;;;;;;;;;;19.00;63.90;;;;;;5083593;28;43002;-81
2024/01/15 05:12:33;;;;;;;;;;;19.00;63.90;;;;;;5078938;27;43071;-78
2024/01/15 05:14:59;;;;;;;;;;;18.90;63.80;;;;;;5084757;28;43764;-80
2024/01/15 05:17:24;;;;;;;;;;;19.00;63.80;;;;;;5083756;28;43279;-79
2024/01/15 05:19:50;;;;;;;;;;;19.00;63.90;;;;;;5080429;28;42874;-81
2024/01/15 05:22:16;;;;;;;;;;;22.60;65.90;;;;;;5078077;28;43096;-80
2024/01/15 05:24:41;;;;;;;;;;;18.90;63.70;;;;;;5082408;27;43669;-79
2024/01/15 05:27:07;;;;;;;;;;;18.90;63.70;;;;;;5081892;28;43059;-85
2024/01/15 05:29:32;;;;;;;;;;;18.90;63.70;;;;;;5079729;28;43202;-86
2024/01/15 05:31:58;;;;;;;;;;;18.90;63.80;;;;;;5081856;28;42920;-80
2024/01/15 05:34:23;;;;;;;;;;;19.00;63.60;;;;;;5083027;27;43888;-79
2024/01/15 05:36:49;;;;;;;;;;;18.90;63.60;;;;;;5089142;27;42880;-80
2024/01/15 05:39:14;;;;;;;;;;;18.90;63.80;;;;;;5082878;28;42909;-82
2024/01/15 05:41:40;;;;;;;;;;;18.90;63.10;;;;;;5078828;28;43177;-82
2024/01/15 05:44:05;;;;;;;;;;;18.90;61.30;;;;;;5075153;28;44014;-79
2024/01/15 05:46:31;;;;;;;;;;;18.90;60.00;;;;;;5085545;28;42949;-81
2024/01/15 05:48:56;;;;;;;;;;;18.90;60.30;;;;;;5085515;28;43137;-83
2024/01/15 05:51:22;;;;;;;;;;;18.90;60.00;;;;;;5079205;28;43098;-79
2024/01/15 05:53:47;;;;;;;;;;;18.90;59.30;;;;;;5069728;28;42975;-82
2024/01/15 05:56:13;;;;;;;;;;;18.90;58.20;;;;;;5083884;28;43017;-84
2024/01/15 05:58:38;;;;;;;;;;;18.90;57.60;;;;;;5085636;27;43244;-82
2024/01/15 06:01:04;;;;;;;;;;;18.80;57.60;;;;;;5072535;27;42996;-79
2024/01/15 06:03:30;;;;;;;;;;;18.80;56.80;;;;;;5085155;28;42975;-79
2024/01/15 06:05:55;;;;;;;;;;;18.80;56.10;;;;;;5085351;28;43064;-80
2024/01/15 06:08:21;;;;;;;;;;;18.80;57.00;;;;;;5085593;28;42948;-80
2024/01/15 06:10:46;;;;;;;;;;;18.80;55.60;;;;;;5083721;28;42885;-83
2024/01/15 06:13:13;;;;;;;;;;;18.80;56.30;;;;;;5084818;27;44288;-81
2024/01/15 06:15:39;;;;;;;;;;;18.80;58.60;;;;;;5085047;27;43066;-79
2024/01/15 06:18:04;;;;;;;;;;;18.80;59.20;;;;;;5084183;28;43058;-84
2024/01/15 06:20:30;;;;;;;;;;;18.80;60.30;;;;;;5085497;28;43080;-84
2024/01/15 06:22:55;;;;;;;;;;;18.90;60.90;;;;;;5085692;28;43263;-83
2024/01/15 06:25:21;;;;;;;;;;;18.90;60.60;;;;;;5085732;27;43035;-83
2024/01/15 06:27:46;;;;;;;;;;;18.90;61.30;;;;;;5085402;28;43089;-83
2024/01/15 06:30:13;;;;;;;;;;;18.90;61.30;;;;;;5085598;27;42953;-79
2024/01/15 06:32:38;;;;;;;;;;;18.90;61.40;;;;;;5083805;28;44522;-79
2024/01/15 06:35:04;;;;;;;;;;;19.00;61.50;;;;;;5085687;28;43460;-82
2024/01/15 06:37:29;;;;;;;;;;;18.90;61.60;;;;;;5085482;27;43787;-83
2024/01/15 06:39:55;;;;;;;;;;;18.90;61.50;;;;;;5085481;28;42982;-82
2024/01/15 06:42:21;;;;;;;;;;;19.00;61.70;;;;;;5085377;27;43359;-82
2024/01/15 06:44:47;;;;;;;;;;;19.00;61.70;;;;;;5083905;27;42962;-80
2024/01/15 06:47:14;;;;;;;;;;;19.00;61.30;;;;;;5083647;28;43039;-78
2024/01/15 06:49:39;;;;;;;;;;;19.00;62.00;;;;;;5085158;27;43085;-79
2024/01/15 06:52:05;;;;;;;;;;;19.00;62.10;;;;;;5085409;28;43064;-79
2024/01/15 06:54:30;;;;;;;;;;;19.10;62.20;;;;;;5085038;28;42871;-79
2024/01/15 06:56:56;;;;;;;;;;;19.10;62.30;;;;;;5085142;27;43056;-79
2024/01/15 06:59:21;;;;;;;;;;;19.10;62.40;;;;;;5084937;27;43030;-80
2024/01/15 07:01:47;;;;;;;;;;;19.10;62.40;;;;;;5083860;28;43663;-82
2024/01/15 07:04:13;;;;;;;;;;;19.10;62.40;;;;;;5084845;28;42883;-83
2024/01/15 07:06:38;;;;;;;;;;;19.10;62.50;;;;;;5085832;27;42991;-81
2024/01/15 07:09:04;;;;;;;;;;;19.10;62.70;;;;;;5083153;28;43055;-80
2024/01/15 07:11:31;;;;;;;;;;;19.10;62.70;;;;;;5083981;27;42906;-82
2024/01/15 07:13:57;;;;;;;;;;;19.10;62.60;;;;;;5084079;27;42940;-78
2024/01/15 07:16:22;;;;;;;;;;;19.10;62.70;;;;;;5084564;28;42951;-78
2024/01/15 07:18:48;;;;;;;;;;;19.10;62.70;;;;;;5085099;27;42835;-78
2024/01/15 07:21:13;;;;;;;;;;;19.10;62.80;;;;;;5084087;28;43196;-80
2024/01/15 07:23:39;;;;;;;;;;;19.00;62.20;;;;;;5082969;28;43142;-78
2024/01/15 07:26:05;;;;;;;;;;;19.10;62.90;;;;;;5084796;28;43023;-80
2024/01/15 07:28:30;;;;;;;;;;;19.10;63.00;;;;;;5084593;27;43019;-82
2024/01/15 07:30:56;;;;;;;;;;;19.10;62.90;;;;;;5083966;27;42960;-83
2024/01/15 07:33:22;;;;;;;;;;;19.10;63.00;;;;;;5084586;27;43122;-81
2024/01/15 07:35:47;;;;;;;;;;;19.10;63.10;;;;;;5084663;28;43228;-82
2024/01/15 07:38:13;;;;;;;;;;;19.10;63.10;;;;;;5083605;28;43044;-80
2024/01/15 07:40:38;;;;;;;;;;;19.10;63.20;;;;;;5084630;27;43144;-80
2024/01/15 07:43:04;;;;;;;;;;;19.10;63.20;;;;;;5084280;27;42989;-79
2024/01/15 07:45:30;;;;;;;;;;;19.10;63.20;;;;;;5084545;27;43380;-80
2024/01/15 07:47:55;;;;;;;;;;;19.10;63.30;;;;;;5084093;27;43066;-80
2024/01/15 07:50:21;;;;;;;;;;;19.10;63.30;;;;;;5082639;28;45220;-80
2024/01/15 07:52:46;;;;;;;;;;;19.10;63.20;;;;;;5084881;28;42936;-79
2024/01/15 07:55:12;;;;;;;;;;;19.10;63.30;;;;;;5085544;28;42814;-83
2024/01/15 07:57:38;;;;;;;;;;;19.10;63.30;;;;;;5088411;27;42924;-77
2024/01/15 08:00:05;;;;;;;;;;;19.10;63.30;;;;;;5088161;27;44320;-78
2024/01/15 08:02:31;;;;;;;;;;;19.10;63.30;;;;;;5091249;27;42924;-79
2024/01/15 08:04:58;;;;;;;;;;;19.10;63.40;;;;;;5097181;27;44050;-80
2024/01/15 08:07:25;;;;;;;;;;;19.10;63.40;;;;;;5088370;27;42911;-80
2024/01/15 08:09:51;;;;;;;;;;;19.10;63.30;;;;;;5087808;28;43378;-82
2024/01/15 08:12:16;;;;;;;;;;;19.10;63.40;;;;;;5084956;28;43027;-80
2024/01/15 08:14:41;;;;;;;;;;;19.10;63.50;;;;;;5087025;28;44011;-84
2024/01/15 08:17:07;;;;;;;;;;;19.10;63.40;;;;;;5087473;28;43050;-81
2024/01/15 08:19:32;;;;;;;;;;;19.10;63.40;;;;;;5087928;28;42798;-82
2024/01/15 08:21:58;;;;;;;;;;;19.10;63.60;;;;;;5087840;28;43466;-83
2024/01/15 08:24:23;;;;;;;;;;;19.10;63.50;;;;;;5087481;28;43426;-81
2024/01/15 08:26:49;;;;;;;;;;;19.10;63.50;;;;;;5087893;28;42854;-83
2024/01/15 08:29:14;;;;;;;;;;;19.10;63.50;;;;;;5088498;28;42865;-79
2024/01/15 08:31:40;;;;;;;;;;;19.10;63.60;;;;;;5088561;28;42987;-82
2024/01/15 08:34:06;;;;;;;;;;;19.10;63.60;;;;;;5087432;28;42924;-79
2024/01/15 08:36:31;;;;;;;;;;;19.10;63.50;;;;;;5087164;27;43014;-81
2024/01/15 08:38:57;;;;;;;;;;;19.10;63.50;;;;;;5086440;28;43382;-80
2024/01/15 08:41:23;;;;;;;;;;;19.10;63.60;;;;;;5086926;28;43103;-82
2024/01/15 08:43:48;;;;;;;;;;;19.10;63.70;;;;;;5087330;27;43244;-82
2024/01/15 08:46:14;;;;;;;;;;;19.10;63.60;;;;;;5086945;28;42994;-81
2024/01/15 08:48:39;;;;;;;;;;;19.10;63.70;;;;;;5086122;28;42988;-83
2024/01/15 08:51:05;;;;;;;;;;;19.10;63.70;;;;;;5086440;28;43130;-79
2024/01/15 08:53:31;;;;;;;;;;;19.10;63.70;;;;;;5087136;27;42943;-80
2024/01/15 08:55:56;;;;;;;;;;;19.10;64.00;;;;;;5086780;27;43065;-81
2024/01/15 08:58:23;;;;;;;;;;;19.10;64.00;;;;;;5087112;28;43437;-81
2024/01/15 09:00:48;;;;;;;;;;;19.10;63.80;;;;;;5087144;27;42984;-82
2024/01/15 09:03:14;;;;;;;;;;;19.10;64.20;;;;;;5087180;28;42953;-81
2024/01/15 09:05:40;;;;;;;;;;;19.10;64.20;;;;;;5086942;27;42848;-81
2024/01/15 09:08:06;;;;;;;;;;;19.10;64.10;;;;;;5085511;27;42872;-80
2024/01/15 09:10:32;;;;;;;;;;;19.10;64.20;;;;;;5086424;28;43018;-81
2024/01/15 09:12:57;;;;;;;;;;;19.10;64.10;;;;;;5085973;27;42885;-80
2024/01/15 09:15:23;;;;;;;;;;;19.10;64.30;;;;;;5086888;27;42951;-82
2024/01/15 09:17:49;;;;;;;;;;;19.10;64.30;;;;;;5085506;27;43527;-80
2024/01/15 09:20:15;;;;;;;;;;;19.10;64.40;;;;;;5086290;27;42917;-80
2024/01/15 09:22:41;;;;;;;;;;;19.10;64.30;;;;;;5086092;27;42973;-82
2024/01/15 09:25:08;;;;;;;;;;;19.10;64.30;;;;;;5086006;28;42853;-82
2024/01/15 09:27:34;;;;;;;;;;;19.10;64.30;;;;;;5086284;27;42980;-80
2024/01/15 09:29:59;;;;;;;;;;;19.20;64.50;;;;;;5086159;27;43158;-77
2024/01/15 09:32:25;;;;;;;;;;;19.10;61.20;;;;;;5086535;28;43052;-79
2024/01/15 09:34:50;;;;;;;;;;;19.10;59.10;;;;;;5085140;28;42962;-81
2024/01/15 09:37:16;;;;;;;;;;;19.00;59.80;;;;;;5085986;28;42917;-79
2024/01/15 09:39:41;;;;;;;;;;;19.00;59.40;;;;;;5086152;27;42991;-79
2024/01/15 09:42:07;;;;;;;;;;;19.00;58.10;;;;;;5085991;27;43515;-79
2024/01/15 09:44:33;;;;;;;;;;;22.10;59.40;;;;;;5083056;27;43571;-78
2024/01/15 09:46:59;;;;;;;;;;;19.00;58.10;;;;;;5075061;27;42894;-78
2024/01/15 09:49:25;;;;;;;;;;;18.90;57.90;;;;;;5077419;28;42961;-77
2024/01/15 09:51:50;;;;;;;;;;;18.90;57.60;;;;;;5085399;27;43518;-78
2024/01/15 09:54:17;;;;;;;;;;;18.90;57.70;;;;;;5085612;28;42842;-79
2024/01/15 09:56:46;;;;;;;;;;;18.90;57.50;;;;;;5085179;28;42943;-78
2024/01/15 09:59:18;;;;;;;;;;;18.90;57.60;;;;;;5085129;27;42965;-78
2024/01/15 10:01:44;;;;;;;;;;;18.90;57.60;;;;;;5085239;28;42997;-78
2024/01/15 10:04:13;;;;;;;;;;;18.90;57.70;;;;;;5085505;27;43049;-78
2024/01/15 10:06:41;;;;;;;;;;;18.90;57.90;;;;;;5085645;28;43776;-78
2024/01/15 10:09:07;;;;;;;;;;;18.90;57.80;;;;;;5085024;27;43035;-77
2024/01/15 10:11:33;;;;;;;;;;;18.90;57.90;;;;;;5084967;27;43631;-77
2024/01/15 10:13:59;;;;;;;;;;;18.90;57.90;;;;;;5085459;27;42692;-78
2024/01/15 10:16:25;;;;;;;;;;;18.90;58.10;;;;;;5085071;28;43671;-78
2024/01/15 10:18:50;;;;;;;;;;;18.90;58.20;;;;;;5085151;27;43302;-77
2024/01/15 10:21:16;;;;;;;;;;;18.90;58.20;;;;;;5085045;28;43641;-78
2024/01/15 10:23:41;;;;;;;;;;;18.90;58.20;;;;;;5085551;28;43236;-77
2024/01/15 10:26:07;;;;;;;;;;;18.90;58.10;;;;;;5092034;28;43237;-77
2024/01/15 10:28:33;;;;;;;;;;;18.90;58.60;;;;;;5093268;27;42911;-78
2024/01/15 10:30:59;;;;;;;;;;;18.90;58.20;;;;;;5085829;28;43071;-78
2024/01/15 10:33:28;;;;;;;;;;;18.90;58.80;;;;;;5080311;27;42913;-79
2024/01/15 10:35:57;;;;;;;;;;;18.90;58.30;;;;;;5084796;27;42946;-78
2024/01/15 10:38:23;;;;;;;;;;;18.90;59.10;;;;;;5083983;27;42925;-77
2024/01/15 10:40:52;;;;;;;;;;;18.90;59.10;;;;;;5084218;27;43360;-78
2024/01/15 10:43:17;;;;;;;;;;;19.00;59.30;;;;;;5085388;27;43015;-78
2024/01/15 10:45:44;;;;;;;;;;;18.90;58.90;;;;;;5084556;28;43611;-78
2024/01/15 10:48:10;;;;;;;;;;;19.00;59.30;;;;;;5084115;27;43121;-78
2024/01/15 10:50:36;;;;;;;;;;;19.00;59.30;;;;;;5084576;28;43143;-78
2024/01/15 10:53:01;;;;;;;;;;;18.90;59.00;;;;;;5083114;28;43018;-78
2024/01/15 10:55:27;;;;;;;;;;;19.00;59.50;;;;;;5084554;27;42957;-78
2024/01/15 10:57:53;;;;;;;;;;;19.00;59.40;;;;;;5084790;27;42783;-79
2024/01/15 11:00:19;;;;;;;;;;;19.00;59.60;;;;;;5073853;27;43371;-79
2024/01/15 11:02:44;;;;;;;;;;;19.00;59.50;;;;;;5084126;28;43055;-78
2024/01/15 11:05:10;;;;;;;;;;;19.00;59.80;;;;;;5084606;27;42914;-77
2024/01/15 11:07:36;;;;;;;;;;;19.00;59.90;;;;;;5084520;28;43042;-78
2024/01/15 11:10:03;;;;;;;;;;;19.00;59.60;;;;;;5084529;27;43515;-78
2024/01/15 11:12:29;;;;;;;;;;;19.00;59.60;;;;;;5084654;27;42940;-79
2024/01/15 11:15:01;;;;;;;;;;;19.00;59.70;;;;;;5084519;27;43089;-75
2024/01/15 11:17:27;;;;;;;;;;;19.00;59.70;;;;;;5084387;27;42948;-76
2024/01/15 11:19:52;;;;;;;;;;;19.00;59.50;;;;;;5083050;28;44537;-76
2024/01/15 11:22:30;;;;;;;;;;;19.00;59.80;;;;;;5084060;27;43074;-78
2024/01/15 11:24:56;;;;;;;;;;;19.00;60.00;;;;;;5084406;27;44041;-77
2024/01/15 11:27:40;;;;;;;;;;;19.00;60.00;;;;;;5083974;27;43136;-77
2024/01/15 11:30:09;;;;;;;;;;;19.00;60.00;;;;;;5083643;27;42937;-78
2024/01/15 11:32:35;;;;;;;;;;;19.00;60.00;;;;;;5083582;27;42842;-78
2024/01/15 11:35:02;;;;;;;;;;;19.00;60.00;;;;;;5084438;27;43013;-78
2024/01/15 11:37:29;;;;;;;;;;;19.00;59.90;;;;;;5083995;27;43009;-77
2024/01/15 11:39:55;;;;;;;;;;;19.10;59.90;;;;;;5083864;27;43536;-77
2024/01/15 11:42:21;;;;;;;;;;;19.00;59.90;;;;;;5084214;28;43040;-77
2024/01/15 11:44:47;;;;;;;;;;;19.00;59.70;;;;;;5083209;27;42908;-76
2024/01/15 11:47:13;;;;;;;;;;;19.00;59.70;;;;;;5083855;28;43055;-78
2024/01/15 11:49:57;;;;;;;;;;;19.00;59.70;;;;;;5080658;28;44467;-77
2024/01/15 11:52:23;;;;;;;;;;;19.00;59.60;;;;;;5083510;28;43009;-77
2024/01/15 11:54:58;;;;;;;;;;;19.10;59.60;;;;;;5081862;28;45720;-78
2024/01/15 11:57:40;;;;;;;;;;;19.10;59.50;;;;;;5083722;28;42991;-78
2024/01/15 12:00:06;;;;;;;;;;;19.00;59.40;;;;;;5083854;27;43841;-77
2024/01/15 12:02:32;;;;;;;;;;;19.10;59.40;;;;;;5084117;28;43114;-78
2024/01/15 12:04:57;;;;;;;;;;;19.10;59.90;;;;;;5084110;27;43349;-78
2024/01/15 12:07:23;;;;;;;;;;;19.10;59.30;;;;;;5083698;28;42968;-78
2024/01/15 12:09:48;;;;;;;;;;;19.10;59.30;;;;;;5083577;27;42992;-77
2024/01/15 12:12:20;;;;;;;;;;;19.00;59.20;;;;;;5083417;28;42849;-78
2024/01/15 12:14:45;;;;;;;;;;;19.10;59.30;;;;;;5082925;27;43026;-78
2024/01/15 12:17:11;;;;;;;;;;;19.10;59.10;;;;;;5083296;28;43114;-78
2024/01/15 12:19:37;;;;;;;;;;;19.00;59.00;;;;;;5083391;28;43543;-78
2024/01/15 12:22:02;;;;;;;;;;;19.10;59.00;;;;;;5083569;27;43008;-78
2024/01/15 12:24:28;;;;;;;;;;;19.10;59.00;;;;;;5083745;27;43811;-80
2024/01/15 12:26:53;;;;;;;;;;;19.10;59.00;;;;;;5079049;27;43082;-79
2024/01/15 12:29:19;;;;;;;;;;;19.10;58.70;;;;;;5083182;27;43520;-79
2024/01/15 12:31:46;;;;;;;;;;;19.10;58.50;;;;;;5083404;27;43182;-80
2024/01/15 12:34:12;;;;;;;;;;;19.10;58.30;;;;;;5083557;28;42787;-79
2024/01/15 12:36:37;;;;;;;;;;;19.10;58.20;;;;;;5082731;27;43066;-80
2024/01/15 12:39:03;;;;;;;;;;;19.10;58.20;;;;;;5082028;27;43454;-80
2024/01/15 12:41:28;;;;;;;;;;;19.10;58.20;;;;;;5081806;28;43038;-76
2024/01/15 12:43:54;;;;;;;;;;;19.10;58.40;;;;;;5079144;27;42928;-78
2024/01/15 12:46:19;;;;;;;;;;;19.10;58.50;;;;;;5085469;27;43022;-77
2024/01/15 12:48:45;;;;;;;;;;;19.10;58.60;;;;;;5086077;27;42944;-76
2024/01/15 12:51:10;;;;;;;;;;;19.10;58.50;;;;;;5100684;28;42340;-76
2024/01/15 12:53:36;;;;;;;;;;;19.10;58.40;;;;;;5100284;28;42875;-76
2024/01/15 12:56:01;;;;;;;;;;;19.10;58.50;;;;;;5092308;28;43039;-75
2024/01/15 12:58:27;;;;;;;;;;;19.10;58.40;;;;;;5087843;28;43575;-75
2024/01/15 13:00:52;;;;;;;;;;;19.10;58.40;;;;;;5073003;28;42945;-77
2024/01/15 13:03:18;;;;;;;;;;;19.10;58.40;;;;;;5076583;28;43602;-76
2024/01/15 13:05:45;;;;;;;;;;;19.10;58.30;;;;;;5086174;28;42990;-76
2024/01/15 13:08:10;;;;;;;;;;;19.10;58.30;;;;;;5085315;27;43015;-76
2024/01/15 13:10:36;;;;;;;;;;;19.10;58.30;;;;;;5085773;28;43960;-75
2024/01/15 13:13:01;;;;;;;;;;;19.10;58.30;;;;;;5086126;27;42882;-76
2024/01/15 13:15:27;;;;;;;;;;;19.10;58.30;;;;;;5085485;27;43127;-75
2024/01/15 13:17:52;;;;;;;;;;;19.10;58.20;;;;;;5086315;27;43760;-76
2024/01/15 13:20:18;;;;;;;;;;;19.10;58.20;;;;;;5085121;28;43080;-75
2024/01/15 13:22:44;;;;;;;;;;;19.10;58.20;;;;;;5085132;27;43253;-76
2024/01/15 13:25:11;;;;;;;;;;;19.10;58.20;;;;;;5084931;27;43131;-75
2024/01/15 13:27:37;;;;;;;;;;;19.10;58.10;;;;;;5085015;27;43036;-75
2024/01/15 13:30:03;;;;;;;;;;;19.10;58.10;;;;;;5083899;27;43346;-77
2024/01/15 13:32:28;;;;;;;;;;;19.10;58.10;;;;;;5085029;27;44060;-77
2024/01/15 13:34:55;;;;;;;;;;;19.10;58.10;;;;;;5083378;27;42961;-77
2024/01/15 13:37:20;;;;;;;;;;;19.00;58.00;;;;;;5080748;28;43012;-76
2024/01/15 13:39:46;;;;;;;;;;;19.10;58.10;;;;;;5085186;28;43033;-77
2024/01/15 13:42:11;;;;;;;;;;;19.10;58.00;;;;;;5083655;28;44657;-78
2024/01/15 13:44:37;;;;;;;;;;;19.10;58.10;;;;;;5085044;28;43030;-79
2024/01/15 13:47:03;;;;;;;;;;;19.10;58.00;;;;;;5085351;27;42961;-79
2024/01/15 13:49:29;;;;;;;;;;;19.10;57.90;;;;;;5080022;27;42984;-77
2024/01/15 13:51:54;;;;;;;;;;;19.10;58.30;;;;;;5086144;27;43537;-77
2024/01/15 13:54:20;;;;;;;;;;;19.10;58.20;;;;;;5085493;27;43004;-77
2024/01/15 13:56:47;;;;;;;;;;;19.10;58.20;;;;;;5086288;28;43710;-77
2024/01/15 14:06:58;;;;;;;;;;;19.10;58.20;;;;;;5085845;22;43152;-79
2024/01/15 14:09:25;;;;;;;;;;;19.10;58.00;;;;;;5081260;28;42978;-78
2024/01/15 14:11:50;;;;;;;;;;;19.10;58.10;;;;;;5086156;28;43074;-77
2024/01/15 14:14:17;;;;;;;;;;;19.00;58.50;;;;;;5086427;28;43132;-77
2024/01/15 14:16:42;;;;;;;;;;;19.00;57.90;;;;;;5082461;27;42994;-78
2024/01/15 14:19:09;;;;;;;;;;;19.00;58.00;;;;;;5085496;28;43163;-77
2024/01/15 14:21:35;;;;;;;;;;;19.10;57.90;;;;;;5085764;27;43386;-78
2024/01/15 14:24:00;;;;;;;;;;;19.10;57.90;;;;;;5085749;27;42901;-76
2024/01/15 14:26:26;;;;;;;;;;;19.00;57.80;;;;;;5085506;28;43034;-78
2024/01/15 14:28:52;;;;;;;;;;;19.00;57.80;;;;;;5085748;28;43018;-77
2024/01/15 14:31:17;;;;;;;;;;;19.10;57.90;;;;;;5084167;28;43522;-77
2024/01/15 14:33:43;;;;;;;;;;;19.00;57.80;;;;;;5077159;28;42979;-77
2024/01/15 14:36:08;;;;;;;;;;;19.00;57.70;;;;;;5077220;28;43906;-76
2024/01/15 14:38:34;;;;;;;;;;;19.10;57.70;;;;;;5077519;28;42953;-77
2024/01/15 14:41:00;;;;;;;;;;;19.00;57.70;;;;;;5081647;27;43304;-78
2024/01/15 14:43:26;;;;;;;;;;;19.00;57.60;;;;;;5085836;27;42972;-77
2024/01/15 14:45:51;;;;;;;;;;;19.00;57.70;;;;;;5085543;28;43435;-77
2024/01/15 14:50:52;;;;;;;;;;;19.00;57.80;;;;;;5339508;22;43443;-77
2024/01/15 14:53:18;;;;;;;;;;;19.10;57.90;;;;;;5045223;28;42840;-78
2024/01/15 14:55:43;;;;;;;;;;;19.00;57.80;;;;;;5044677;28;43142;-78
2024/01/15 14:58:09;;;;;;;;;;;19.10;57.90;;;;;;5046701;28;43051;-78
2024/01/15 15:00:36;;;;;;;;;;;19.10;57.90;;;;;;5046285;28;43201;-76
2024/01/15 15:03:02;;;;;;;;;;;19.10;58.00;;;;;;5058122;28;42969;-78
2024/01/15 15:05:28;;;;;;;;;;;19.10;57.90;;;;;;5043690;28;43661;-78
2024/01/15 15:07:53;;;;;;;;;;;19.10;57.80;;;;;;5050673;28;42960;-78
2024/01/15 15:10:19;;;;;;;;;;;19.00;57.90;;;;;;5050155;28;43076;-79
2024/01/15 15:12:44;;;;;;;;;;;19.10;58.00;;;;;;5044343;28;42989;-78
2024/01/15 15:15:11;;;;;;;;;;;19.10;58.00;;;;;;5043808;28;43937;-79
2024/01/15 15:17:37;;;;;;;;;;;19.10;58.00;;;;;;5057315;28;42937;-78
2024/01/15 15:20:03;;;;;;;;;;;19.10;58.00;;;;;;5066040;28;42976;-78
2024/01/15 15:22:29;;;;;;;;;;;19.10;58.00;;;;;;5046829;28;43084;-78
2024/01/15 15:24:54;;;;;;;;;;;19.10;58.10;;;;;;5043861;28;43318;-78
2024/01/15 15:48:04;;;;;;;;;;;18.00;57.60;;;;;;5188448;22;44944;-79
2024/01/15 15:50:30;;;;;;;;;;;19.10;58.10;;;;;;5064427;28;43191;-80
2024/01/15 15:52:55;;;;;;;;;;;19.10;58.20;;;;;;5047061;28;43001;-79
2024/01/15 15:55:23;;;;;;;;;;;19.10;58.10;;;;;;5064606;28;42974;-79
2024/01/15 15:57:48;;;;;;;;;;;19.10;58.10;;;;;;5064187;28;42947;-78
2024/01/15 16:00:14;;;;;;;;;;;19.10;58.10;;;;;;5063872;28;42855;-78
2024/01/15 16:02:39;;;;;;;;;;;19.10;58.10;;;;;;5063260;28;42877;-79